createdAt,value
2023-05-05T00:00:00.471Z,65.39
2023-05-05T00:01:00.412Z,63.33
2023-05-05T00:02:00.488Z,63.90
2023-05-05T00:03:00.540Z,64.18
2023-05-05T00:04:00.553Z,63.83
2023-05-05T00:05:00.452Z,61.38
2023-05-05T00:06:00.405Z,62.57
2023-05-05T00:07:00.394Z,62.83
2023-05-05T00:08:00.372Z,61.37
2023-05-05T00:09:00.433Z,65.66
2023-05-05T00:10:00.390Z,62.40
2023-05-05T00:11:00.376Z,61.74
2023-05-05T00:12:00.365Z,61.80
2023-05-05T00:13:00.352Z,66.13
2023-05-05T00:14:00.346Z,63.02
2023-05-05T00:15:00.315Z,62.92
2023-05-05T00:16:00.324Z,61.18
2023-05-05T00:17:00.397Z,61.67
2023-05-05T00:18:00.373Z,60.95
2023-05-05T00:19:00.303Z,61.68
2023-05-05T00:20:00.320Z,62.31
2023-05-05T00:21:00.283Z,63.05
2023-05-05T00:22:00.260Z,61.49
2023-05-05T00:23:00.530Z,63.68
2023-05-05T00:24:00.301Z,61.62
2023-05-05T00:25:00.280Z,61.43
2023-05-05T00:26:00.252Z,61.00
2023-05-05T00:27:00.297Z,62.83
2023-05-05T00:28:00.255Z,62.98
2023-05-05T00:29:00.252Z,60.87
2023-05-05T00:30:00.269Z,58.59
2023-05-05T00:31:00.359Z,59.99
2023-05-05T00:32:00.243Z,58.70
2023-05-05T00:33:00.316Z,63.69
2023-05-05T00:34:00.217Z,58.40
2023-05-05T00:35:00.197Z,61.72
2023-05-05T00:36:00.184Z,58.84
2023-05-05T00:37:00.227Z,57.78
2023-05-05T00:38:00.170Z,58.82
2023-05-05T00:39:00.185Z,58.14
2023-05-05T00:40:00.200Z,59.76
2023-05-05T00:41:00.168Z,57.27
2023-05-05T00:42:00.185Z,58.23
2023-05-05T00:43:00.250Z,57.40
2023-05-05T00:44:00.241Z,59.29
2023-05-05T00:45:00.296Z,60.14
2023-05-05T00:46:00.362Z,56.75
2023-05-05T00:47:00.381Z,56.40
2023-05-05T00:48:00.463Z,56.89
2023-05-05T00:49:00.484Z,59.82
2023-05-05T00:50:00.498Z,59.92
2023-05-05T00:51:00.543Z,59.73
2023-05-05T00:52:00.606Z,58.04
2023-05-05T00:53:00.626Z,57.52
2023-05-05T00:54:00.661Z,56.24
2023-05-05T00:55:00.713Z,57.84
2023-05-05T00:56:00.765Z,54.92
2023-05-05T00:57:00.811Z,57.30
2023-05-05T00:58:00.840Z,55.71
2023-05-05T00:59:00.916Z,56.70
2023-05-05T01:00:00.929Z,56.87
2023-05-05T01:01:00.988Z,56.74
2023-05-05T01:02:01.053Z,56.09
2023-05-05T01:03:01.150Z,57.30
2023-05-05T01:04:01.150Z,55.18
2023-05-05T01:05:01.143Z,56.99
2023-05-05T01:06:01.202Z,54.73
2023-05-05T01:07:01.232Z,55.23
2023-05-05T01:08:01.352Z,54.17
2023-05-05T01:09:01.364Z,53.47
2023-05-05T01:10:15.639Z,56.94
2023-05-05T01:11:02.469Z,57.09
2023-05-05T01:12:01.376Z,57.06
2023-05-05T01:13:01.428Z,56.63
2023-05-05T01:14:01.362Z,56.76
2023-05-05T01:15:01.382Z,54.86
2023-05-05T01:16:01.370Z,54.58
2023-05-05T01:17:01.362Z,54.27
2023-05-05T01:18:01.347Z,56.70
2023-05-05T01:19:01.319Z,57.21
2023-05-05T01:20:01.325Z,56.12
2023-05-05T01:21:01.378Z,53.30
2023-05-05T01:22:01.361Z,55.35
2023-05-05T01:23:01.410Z,53.60
2023-05-05T01:24:01.492Z,52.27
2023-05-05T01:25:01.489Z,52.38
2023-05-05T01:26:01.554Z,52.03
2023-05-05T01:27:01.619Z,53.00
2023-05-05T01:28:01.657Z,51.83
2023-05-05T01:29:01.708Z,51.44
2023-05-05T01:30:01.723Z,52.29
2023-05-05T01:31:01.773Z,53.10
2023-05-05T01:32:01.859Z,55.28
2023-05-05T01:33:01.851Z,55.92
2023-05-05T01:34:01.909Z,53.57
2023-05-05T01:35:01.989Z,51.23
2023-05-05T01:36:01.991Z,54.09
2023-05-05T01:37:02.054Z,50.97
2023-05-05T01:38:02.099Z,51.03
2023-05-05T01:39:02.120Z,51.09
2023-05-05T01:40:02.214Z,52.75
2023-05-05T01:41:02.250Z,49.58
2023-05-05T01:42:02.292Z,52.09
2023-05-05T01:43:02.322Z,53.71
2023-05-05T01:44:02.393Z,52.52
2023-05-05T01:45:02.420Z,55.66
2023-05-05T01:46:02.526Z,49.89
2023-05-05T01:47:02.509Z,49.24
2023-05-05T01:48:02.625Z,50.40
2023-05-05T01:49:02.614Z,49.80
2023-05-05T01:50:02.672Z,52.83
2023-05-05T01:51:02.685Z,50.81
2023-05-05T01:52:02.727Z,51.36
2023-05-05T01:53:02.794Z,51.70
2023-05-05T01:54:02.820Z,52.04
2023-05-05T01:55:02.896Z,49.76
2023-05-05T01:56:02.912Z,49.64
2023-05-05T01:57:02.971Z,48.23
2023-05-05T01:58:03.043Z,51.80
2023-05-05T01:59:03.054Z,50.58
2023-05-05T02:00:03.099Z,48.97
2023-05-05T02:01:03.224Z,48.92
2023-05-05T02:02:03.294Z,50.92
2023-05-05T02:03:03.381Z,46.67
2023-05-05T02:04:03.298Z,48.83
2023-05-05T02:05:03.367Z,49.40
2023-05-05T02:06:03.373Z,49.67
2023-05-05T02:07:03.446Z,49.26
2023-05-05T02:08:03.499Z,48.55
2023-05-05T02:09:03.525Z,46.16
2023-05-05T02:10:03.589Z,49.79
2023-05-05T02:11:03.638Z,48.91
2023-05-05T02:12:03.688Z,48.05
2023-05-05T02:13:03.782Z,48.52
2023-05-05T02:14:03.782Z,46.41
2023-05-05T02:15:03.865Z,47.22
2023-05-05T02:16:03.936Z,47.40
2023-05-05T02:17:03.941Z,47.86
2023-05-05T02:18:04.012Z,47.57
2023-05-05T02:19:04.029Z,47.66
2023-05-05T02:20:04.080Z,46.26
2023-05-05T02:21:04.131Z,44.76
2023-05-05T02:22:04.157Z,45.25
2023-05-05T02:23:04.633Z,45.54
2023-05-05T02:24:04.260Z,47.61
2023-05-05T02:25:04.335Z,46.44
2023-05-05T02:26:04.409Z,46.22
2023-05-05T02:27:04.468Z,46.84
2023-05-05T02:28:04.501Z,47.39
2023-05-05T02:29:04.526Z,46.30
2023-05-05T02:30:04.596Z,49.42
2023-05-05T02:31:04.719Z,47.51
2023-05-05T02:32:04.714Z,45.71
2023-05-05T02:33:04.795Z,44.70
2023-05-05T02:34:04.779Z,44.94
2023-05-05T02:35:04.858Z,46.16
2023-05-05T02:36:04.898Z,45.39
2023-05-05T02:37:04.979Z,45.46
2023-05-05T02:38:05.036Z,46.78
2023-05-05T02:39:05.016Z,46.54
2023-05-05T02:40:05.148Z,46.54
2023-05-05T02:41:05.145Z,45.03
2023-05-05T02:42:05.218Z,44.77
2023-05-05T02:43:05.289Z,43.23
2023-05-05T02:44:05.293Z,45.62
2023-05-05T02:45:05.344Z,42.83
2023-05-05T02:46:05.450Z,46.72
2023-05-05T02:47:05.430Z,46.59
2023-05-05T02:48:05.685Z,42.85
2023-05-05T02:49:05.541Z,43.54
2023-05-05T02:50:05.751Z,43.07
2023-05-05T02:51:05.649Z,42.36
2023-05-05T02:52:05.684Z,44.13
2023-05-05T02:53:05.762Z,43.93
2023-05-05T02:54:05.803Z,43.94
2023-05-05T02:55:05.848Z,42.04
2023-05-05T02:56:05.939Z,40.27
2023-05-05T02:57:05.979Z,42.92
2023-05-05T02:58:06.035Z,42.55
2023-05-05T02:59:06.062Z,44.38
2023-05-05T03:00:06.456Z,42.12
2023-05-05T03:01:06.208Z,42.92
2023-05-05T03:02:06.229Z,42.37
2023-05-05T03:03:06.391Z,40.66
2023-05-05T03:04:06.369Z,42.92
2023-05-05T03:05:06.400Z,42.43
2023-05-05T03:06:06.452Z,43.29
2023-05-05T03:07:06.504Z,42.90
2023-05-05T03:08:06.568Z,42.47
2023-05-05T03:09:06.617Z,43.13
2023-05-05T03:10:06.808Z,43.20
2023-05-05T03:11:06.735Z,41.50
2023-05-05T03:12:06.816Z,40.48
2023-05-05T03:13:06.906Z,44.14
2023-05-05T03:14:06.918Z,42.26
2023-05-05T03:15:06.974Z,43.46
2023-05-05T03:16:07.060Z,38.87
2023-05-05T03:17:07.103Z,41.21
2023-05-05T03:18:07.192Z,41.77
2023-05-05T03:19:07.216Z,40.20
2023-05-05T03:20:07.436Z,38.87
2023-05-05T03:21:07.292Z,41.58
2023-05-05T03:22:07.353Z,41.18
2023-05-05T03:23:07.419Z,42.80
2023-05-05T03:24:07.468Z,41.83
2023-05-05T03:25:07.542Z,40.09
2023-05-05T03:26:07.588Z,40.38
2023-05-05T03:27:07.629Z,42.54
2023-05-05T03:28:07.761Z,40.57
2023-05-05T03:29:07.764Z,38.31
2023-05-05T03:30:08.137Z,40.53
2023-05-05T03:31:07.872Z,39.05
2023-05-05T03:32:07.950Z,40.32
2023-05-05T03:33:08.046Z,41.05
2023-05-05T03:34:08.020Z,40.37
2023-05-05T03:35:08.109Z,37.61
2023-05-05T03:36:08.145Z,39.14
2023-05-05T03:37:08.191Z,41.05
2023-05-05T03:38:08.254Z,37.68
2023-05-05T03:39:08.338Z,39.78
2023-05-05T03:40:08.537Z,38.55
2023-05-05T03:41:08.466Z,38.93
2023-05-05T03:42:08.484Z,35.79
2023-05-05T03:43:08.571Z,41.29
2023-05-05T03:44:08.603Z,40.92
2023-05-05T03:45:08.644Z,40.14
2023-05-05T03:46:08.841Z,39.12
2023-05-05T03:47:08.767Z,35.66
2023-05-05T03:48:08.857Z,38.91
2023-05-05T03:49:08.886Z,36.75
2023-05-05T03:50:09.147Z,38.85
2023-05-05T03:51:08.995Z,39.80
2023-05-05T03:52:09.040Z,39.45
2023-05-05T03:53:09.153Z,35.80
2023-05-05T03:54:09.158Z,37.64
2023-05-05T03:55:09.216Z,38.77
2023-05-05T03:56:09.296Z,37.29
2023-05-05T03:57:09.360Z,37.93
2023-05-05T03:58:09.434Z,37.44
2023-05-05T03:59:09.468Z,35.75
2023-05-05T04:00:09.573Z,36.45
2023-05-05T04:01:09.568Z,35.95
2023-05-05T04:02:09.675Z,35.73
2023-05-05T04:03:09.840Z,38.31
2023-05-05T04:04:09.858Z,37.47
2023-05-05T04:05:09.826Z,37.42
2023-05-05T04:06:09.897Z,35.13
2023-05-05T04:07:09.939Z,37.62
2023-05-05T04:08:10.130Z,36.04
2023-05-05T04:09:10.060Z,35.10
2023-05-05T04:10:10.227Z,35.56
2023-05-05T04:11:10.217Z,35.35
2023-05-05T04:12:10.257Z,34.79
2023-05-05T04:13:10.408Z,37.50
2023-05-05T04:14:10.367Z,36.28
2023-05-05T04:15:10.431Z,37.47
2023-05-05T04:16:10.515Z,36.19
2023-05-05T04:17:10.578Z,34.37
2023-05-05T04:18:10.679Z,33.42
2023-05-05T04:19:10.925Z,34.34
2023-05-05T04:20:10.918Z,35.26
2023-05-05T04:21:10.757Z,36.42
2023-05-05T04:22:10.849Z,36.54
2023-05-05T04:23:10.932Z,33.24
2023-05-05T04:24:10.976Z,35.27
2023-05-05T04:25:11.020Z,36.13
2023-05-05T04:26:11.086Z,34.51
2023-05-05T04:27:11.137Z,33.59
2023-05-05T04:28:11.208Z,32.37
2023-05-05T04:29:11.237Z,34.81
2023-05-05T04:30:11.318Z,34.22
2023-05-05T04:31:11.381Z,34.39
2023-05-05T04:32:11.455Z,35.82
2023-05-05T04:33:11.521Z,33.53
2023-05-05T04:34:11.569Z,35.56
2023-05-05T04:35:11.636Z,36.16
2023-05-05T04:36:11.690Z,34.66
2023-05-05T04:37:11.767Z,34.63
2023-05-05T04:38:11.820Z,34.64
2023-05-05T04:39:11.887Z,31.52
2023-05-05T04:40:11.944Z,34.26
2023-05-05T04:41:12.004Z,31.98
2023-05-05T04:42:12.090Z,33.83
2023-05-05T04:43:12.149Z,35.74
2023-05-05T04:44:12.205Z,32.45
2023-05-05T04:45:12.249Z,33.46
2023-05-05T04:46:12.340Z,32.83
2023-05-05T04:47:14.587Z,33.25
2023-05-05T04:48:12.457Z,34.43
2023-05-05T04:49:12.528Z,33.72
2023-05-05T04:50:12.580Z,32.92
2023-05-05T04:51:12.626Z,34.14
2023-05-05T04:52:12.696Z,30.69
2023-05-05T04:53:12.824Z,31.76
2023-05-05T04:54:12.862Z,31.71
2023-05-05T04:55:12.903Z,34.30
2023-05-05T04:56:12.947Z,32.20
2023-05-05T04:57:13.036Z,29.09
2023-05-05T04:58:13.065Z,34.39
2023-05-05T04:59:13.171Z,32.12
2023-05-05T05:00:13.207Z,33.46
2023-05-05T05:01:13.270Z,28.76
2023-05-05T05:02:13.467Z,31.76
2023-05-05T05:03:13.495Z,32.20
2023-05-05T05:04:13.445Z,30.61
2023-05-05T05:05:13.515Z,29.65
2023-05-05T05:06:13.592Z,30.96
2023-05-05T05:07:13.632Z,31.32
2023-05-05T05:08:13.698Z,30.92
2023-05-05T05:09:13.783Z,32.55
2023-05-05T05:10:13.847Z,30.67
2023-05-05T05:11:13.912Z,34.15
2023-05-05T05:12:13.965Z,30.76
2023-05-05T05:13:14.038Z,32.19
2023-05-05T05:14:14.087Z,32.25
2023-05-05T05:15:14.151Z,30.12
2023-05-05T05:16:14.201Z,29.52
2023-05-05T05:17:14.294Z,28.82
2023-05-05T05:18:14.360Z,29.95
2023-05-05T05:19:14.400Z,31.23
2023-05-05T05:20:14.439Z,29.86
2023-05-05T05:21:14.531Z,30.92
2023-05-05T05:22:14.584Z,26.55
2023-05-05T05:23:14.668Z,30.90
2023-05-05T05:24:14.723Z,32.02
2023-05-05T05:25:14.787Z,31.86
2023-05-05T05:26:14.817Z,28.51
2023-05-05T05:27:14.913Z,28.83
2023-05-05T05:28:14.955Z,30.60
2023-05-05T05:29:15.115Z,29.86
2023-05-05T05:30:15.096Z,29.28
2023-05-05T05:31:15.141Z,28.91
2023-05-05T05:32:15.218Z,30.61
2023-05-05T05:33:15.256Z,29.20
2023-05-05T05:34:15.312Z,28.64
2023-05-05T05:35:15.396Z,29.07
2023-05-05T05:36:15.436Z,30.92
2023-05-05T05:37:15.508Z,32.11
2023-05-05T05:38:15.691Z,25.81
2023-05-05T05:39:15.632Z,32.52
2023-05-05T05:40:15.669Z,30.11
2023-05-05T05:41:15.732Z,30.95
2023-05-05T05:42:15.803Z,31.40
2023-05-05T05:43:15.874Z,29.05
2023-05-05T05:44:15.907Z,29.26
2023-05-05T05:45:15.988Z,32.21
2023-05-05T05:46:16.094Z,29.50
2023-05-05T05:47:16.048Z,30.66
2023-05-05T05:48:16.145Z,26.61
2023-05-05T05:49:16.188Z,29.03
2023-05-05T05:50:16.249Z,29.35
2023-05-05T05:51:16.298Z,29.03
2023-05-05T05:52:16.359Z,30.51
2023-05-05T05:53:16.401Z,36.06
2023-05-05T05:54:16.486Z,37.98
2023-05-05T05:55:16.548Z,39.77
2023-05-05T05:56:16.558Z,38.89
2023-05-05T05:57:16.614Z,39.23
2023-05-05T05:58:16.735Z,40.51
2023-05-05T05:59:16.667Z,45.00
2023-05-05T06:00:16.748Z,53.53
2023-05-05T06:01:16.666Z,55.22
2023-05-05T06:02:16.802Z,40.38
2023-05-05T06:03:17.379Z,44.40
2023-05-05T06:04:16.832Z,41.65
2023-05-05T06:05:16.839Z,46.81
2023-05-05T06:06:16.933Z,55.83
2023-05-05T06:07:16.945Z,61.60
2023-05-05T06:08:17.185Z,58.78
2023-05-05T06:09:17.036Z,54.54
2023-05-05T06:10:27.172Z,57.60
2023-05-05T06:11:18.081Z,57.63
2023-05-05T06:12:17.061Z,53.45
2023-05-05T06:13:17.088Z,57.69
2023-05-05T06:14:18.149Z,56.11
2023-05-05T06:15:17.047Z,62.19
2023-05-05T06:16:17.193Z,60.85
2023-05-05T06:17:17.109Z,63.58
2023-05-05T06:18:17.221Z,61.90
2023-05-05T06:19:17.200Z,65.37
2023-05-05T06:20:17.254Z,62.23
2023-05-05T06:21:17.251Z,65.63
2023-05-05T06:22:17.249Z,66.15
2023-05-05T06:23:17.703Z,68.12
2023-05-05T06:24:17.296Z,68.29
2023-05-05T06:25:17.356Z,67.56
2023-05-05T06:26:17.370Z,67.16
2023-05-05T06:27:17.402Z,66.67
2023-05-05T06:28:17.435Z,67.25
2023-05-05T06:29:17.445Z,65.39
2023-05-05T06:30:17.457Z,66.81
2023-05-05T06:31:17.512Z,69.26
2023-05-05T06:32:17.501Z,68.83
2023-05-05T06:33:17.750Z,71.34
2023-05-05T06:34:17.547Z,71.33
2023-05-05T06:35:17.547Z,72.93
2023-05-05T06:36:17.596Z,72.90
2023-05-05T06:37:17.609Z,73.52
2023-05-05T06:38:17.586Z,75.88
2023-05-05T06:39:17.731Z,74.86
2023-05-05T06:40:17.594Z,71.05
2023-05-05T06:41:17.603Z,72.11
2023-05-05T06:42:17.607Z,71.94
2023-05-05T06:43:17.617Z,70.56
2023-05-05T06:44:17.618Z,74.31
2023-05-05T06:45:17.637Z,72.66
2023-05-05T06:46:17.651Z,72.06
2023-05-05T06:47:17.646Z,71.63
2023-05-05T06:48:17.586Z,72.09
2023-05-05T06:49:17.690Z,67.28
2023-05-05T06:50:17.582Z,69.04
2023-05-05T06:51:17.636Z,71.93
2023-05-05T06:52:17.627Z,74.95
2023-05-05T06:53:17.609Z,76.24
2023-05-05T06:54:17.633Z,75.07
2023-05-05T06:55:17.569Z,73.07
2023-05-05T06:56:17.577Z,73.80
2023-05-05T06:57:17.580Z,71.50
2023-05-05T06:58:17.594Z,70.26
2023-05-05T06:59:17.601Z,74.70
2023-05-05T07:00:17.600Z,69.47
2023-05-05T07:01:17.586Z,71.92
2023-05-05T07:02:17.587Z,71.68
2023-05-05T07:03:17.648Z,69.99
2023-05-05T07:04:17.665Z,69.61
2023-05-05T07:05:17.707Z,69.47
2023-05-05T07:06:17.676Z,69.19
2023-05-05T07:07:17.652Z,69.67
2023-05-05T07:08:17.703Z,66.77
2023-05-05T07:09:17.731Z,66.64
2023-05-05T07:10:17.739Z,64.72
2023-05-05T07:11:17.762Z,68.57
2023-05-05T07:12:17.747Z,65.94
2023-05-05T07:13:17.840Z,65.57
2023-05-05T07:14:17.836Z,63.99
2023-05-05T07:15:27.597Z,64.64
2023-05-05T07:16:18.837Z,64.83
2023-05-05T07:17:17.816Z,64.70
2023-05-05T07:18:17.834Z,61.09
2023-05-05T07:19:17.787Z,61.84
2023-05-05T07:20:17.777Z,60.49
2023-05-05T07:21:17.850Z,59.93
2023-05-05T07:22:17.784Z,58.22
2023-05-05T07:23:17.784Z,58.67
2023-05-05T07:24:17.773Z,60.36
2023-05-05T07:25:17.760Z,56.96
2023-05-05T07:26:17.758Z,58.34
2023-05-05T07:27:17.754Z,58.21
2023-05-05T07:28:17.721Z,56.96
2023-05-05T07:29:17.730Z,57.03
2023-05-05T07:30:19.033Z,55.06
2023-05-05T07:31:17.726Z,51.70
2023-05-05T07:32:17.813Z,54.77
2023-05-05T07:33:17.790Z,54.15
2023-05-05T07:34:17.866Z,50.70
2023-05-05T07:35:17.873Z,49.49
2023-05-05T07:36:17.918Z,50.92
2023-05-05T07:37:18.075Z,52.50
2023-05-05T07:38:18.002Z,50.77
2023-05-05T07:39:22.207Z,49.00
2023-05-05T07:40:18.020Z,49.23
2023-05-05T07:41:18.026Z,48.97
2023-05-05T07:42:18.032Z,48.43
2023-05-05T07:43:18.032Z,49.26
2023-05-05T07:44:18.045Z,46.28
2023-05-05T07:45:17.986Z,44.82
2023-05-05T07:46:18.011Z,44.48
2023-05-05T07:47:18.007Z,48.73
2023-05-05T07:48:17.961Z,50.83
2023-05-05T07:49:17.983Z,52.92
2023-05-05T07:50:17.945Z,56.12
2023-05-05T07:51:18.008Z,62.09
2023-05-05T07:52:17.956Z,58.23
2023-05-05T07:53:18.007Z,62.45
2023-05-05T07:54:17.916Z,64.33
2023-05-05T07:55:17.933Z,65.58
2023-05-05T07:56:18.933Z,61.29
2023-05-05T07:57:17.872Z,56.81
2023-05-05T07:58:17.883Z,52.29
2023-05-05T07:59:17.898Z,51.01
2023-05-05T08:00:17.899Z,47.79
2023-05-05T08:01:17.866Z,45.46
2023-05-05T08:02:17.860Z,45.46
2023-05-05T08:03:17.930Z,44.15
2023-05-05T08:04:18.330Z,42.75
2023-05-05T08:05:17.915Z,43.82
2023-05-05T08:06:18.006Z,40.82
2023-05-05T08:07:18.022Z,37.85
2023-05-05T08:08:17.999Z,39.34
2023-05-05T08:09:18.109Z,39.71
2023-05-05T08:10:18.066Z,35.22
2023-05-05T08:11:18.131Z,35.45
2023-05-05T08:12:18.131Z,33.93
2023-05-05T08:13:18.236Z,32.05
2023-05-05T08:14:18.258Z,30.81
2023-05-05T08:15:18.274Z,29.53
2023-05-05T08:16:18.320Z,30.37
2023-05-05T08:17:18.378Z,30.37
2023-05-05T08:18:18.379Z,26.40
2023-05-05T08:19:28.252Z,26.92
2023-05-05T08:20:19.420Z,27.14
2023-05-05T08:21:18.450Z,27.08
2023-05-05T08:22:18.389Z,25.81
2023-05-05T08:23:18.426Z,23.17
2023-05-05T08:24:18.748Z,23.17
2023-05-05T08:25:18.499Z,23.85
2023-05-05T08:26:18.368Z,26.06
2023-05-05T08:27:18.383Z,26.14
2023-05-05T08:28:18.395Z,29.42
2023-05-05T08:29:18.770Z,26.91
2023-05-05T08:30:18.432Z,28.60
2023-05-05T08:31:18.608Z,25.68
2023-05-05T08:32:18.555Z,29.04
2023-05-05T08:33:18.607Z,27.38
2023-05-05T08:34:18.757Z,25.00
2023-05-05T08:35:18.721Z,27.66
2023-05-05T08:36:18.790Z,28.49
2023-05-05T08:37:18.866Z,25.03
2023-05-05T08:38:18.912Z,26.58
2023-05-05T08:39:19.010Z,26.10
2023-05-05T08:40:19.015Z,26.42
2023-05-05T08:41:19.215Z,27.28
2023-05-05T08:42:29.290Z,26.03
2023-05-05T08:43:20.127Z,26.24
2023-05-05T08:44:19.136Z,27.17
2023-05-05T08:45:19.123Z,30.54
2023-05-05T08:46:19.189Z,36.15
2023-05-05T08:47:19.158Z,46.20
2023-05-05T08:48:19.080Z,54.25
2023-05-05T08:49:19.127Z,61.44
2023-05-05T08:50:19.089Z,62.08
2023-05-05T08:51:19.091Z,62.48
2023-05-05T08:52:19.109Z,59.98
2023-05-05T08:53:19.118Z,60.11
2023-05-05T08:54:19.292Z,58.26
2023-05-05T08:55:19.063Z,62.61
2023-05-05T08:56:19.090Z,66.22
2023-05-05T08:57:19.186Z,65.16
2023-05-05T08:58:19.170Z,64.58
2023-05-05T08:59:19.185Z,63.01
2023-05-05T09:00:19.187Z,65.15
2023-05-05T09:01:19.220Z,64.31
2023-05-05T09:02:19.237Z,64.62
2023-05-05T09:03:19.250Z,65.86
2023-05-05T09:04:19.782Z,66.20
2023-05-05T09:05:19.300Z,62.72
2023-05-05T09:06:19.330Z,62.44
2023-05-05T09:07:19.337Z,62.42
2023-05-05T09:08:19.339Z,62.52
2023-05-05T09:09:19.403Z,61.11
2023-05-05T09:10:19.433Z,61.05
2023-05-05T09:11:19.437Z,61.37
2023-05-05T09:12:19.432Z,62.57
2023-05-05T09:13:19.577Z,58.32
2023-05-05T09:14:19.487Z,57.99
2023-05-05T09:15:19.487Z,61.74
2023-05-05T09:16:19.646Z,58.65
2023-05-05T09:17:19.530Z,58.67
2023-05-05T09:18:19.628Z,57.25
2023-05-05T09:19:19.791Z,58.31
2023-05-05T09:20:19.609Z,57.07
2023-05-05T09:21:19.645Z,58.52
2023-05-05T09:22:19.658Z,59.36
2023-05-05T09:23:19.695Z,59.29
2023-05-05T09:24:19.731Z,59.51
2023-05-05T09:25:19.716Z,59.50
2023-05-05T09:26:19.739Z,58.41
2023-05-05T09:27:19.752Z,56.47
2023-05-05T09:28:19.762Z,56.63
2023-05-05T09:29:19.863Z,57.64
2023-05-05T09:30:19.837Z,52.61
2023-05-05T09:31:19.888Z,57.28
2023-05-05T09:32:19.842Z,56.46
2023-05-05T09:33:19.906Z,54.33
2023-05-05T09:34:19.907Z,54.03
2023-05-05T09:35:19.926Z,57.44
2023-05-05T09:36:19.953Z,54.77
2023-05-05T09:37:19.987Z,56.24
2023-05-05T09:38:20.951Z,56.43
2023-05-05T09:39:20.351Z,56.41
2023-05-05T09:40:20.112Z,55.26
2023-05-05T09:41:19.912Z,58.43
2023-05-05T09:42:19.909Z,56.66
2023-05-05T09:43:19.952Z,54.78
2023-05-05T09:44:19.944Z,54.43
2023-05-05T09:45:20.101Z,56.78
2023-05-05T09:46:19.948Z,56.55
2023-05-05T09:47:29.476Z,56.06
2023-05-05T09:48:20.945Z,55.45
2023-05-05T09:49:19.875Z,53.04
2023-05-05T09:50:19.899Z,47.49
2023-05-05T09:51:19.890Z,52.50
2023-05-05T09:52:19.872Z,57.65
2023-05-05T09:53:19.848Z,61.70
2023-05-05T09:54:20.274Z,69.22
2023-05-05T09:55:19.847Z,71.55
2023-05-05T09:56:19.832Z,72.14
2023-05-05T09:57:19.842Z,71.42
2023-05-05T09:58:19.982Z,71.84
2023-05-05T09:59:20.291Z,72.75
2023-05-05T10:00:19.893Z,73.71
2023-05-05T10:01:19.947Z,78.75
2023-05-05T10:02:19.781Z,81.02
2023-05-05T10:03:19.799Z,77.24
2023-05-05T10:04:19.856Z,79.31
2023-05-05T10:05:20.036Z,84.25
2023-05-05T10:06:19.954Z,82.62
2023-05-05T10:07:19.987Z,89.38
2023-05-05T10:08:20.034Z,93.36
2023-05-05T10:09:20.076Z,79.54
2023-05-05T10:10:20.091Z,78.77
2023-05-05T10:11:20.134Z,81.43
2023-05-05T10:12:20.141Z,78.33
2023-05-05T10:13:20.281Z,80.27
2023-05-05T10:14:20.217Z,77.18
2023-05-05T10:15:20.183Z,63.81
2023-05-05T10:16:20.267Z,55.80
2023-05-05T10:17:20.306Z,59.66
2023-05-05T10:18:20.281Z,43.17
2023-05-05T10:19:20.292Z,50.41
2023-05-05T10:20:20.283Z,62.40
2023-05-05T10:21:20.299Z,71.47
2023-05-05T10:22:20.305Z,75.77
2023-05-05T10:23:20.326Z,71.64
2023-05-05T10:24:20.340Z,68.67
2023-05-05T10:25:20.325Z,59.16
2023-05-05T10:26:20.366Z,64.47
2023-05-05T10:27:20.361Z,58.84
2023-05-05T10:28:20.362Z,39.53
2023-05-05T10:29:20.361Z,35.55
2023-05-05T10:30:20.355Z,56.22
2023-05-05T10:31:26.335Z,55.32
2023-05-05T10:32:47.172Z,55.54
2023-05-05T10:34:20.402Z,55.56
2023-05-05T10:35:20.325Z,53.87
2023-05-05T10:36:20.356Z,30.32
2023-05-05T10:37:20.344Z,47.01
2023-05-05T10:38:20.339Z,46.24
2023-05-05T10:39:20.824Z,49.19
2023-05-05T10:40:20.303Z,45.65
2023-05-05T10:41:20.271Z,47.87
2023-05-05T10:42:20.344Z,51.56
2023-05-05T10:43:20.272Z,48.58
2023-05-05T10:44:20.255Z,46.52
2023-05-05T10:45:20.374Z,37.51
2023-05-05T10:46:20.342Z,43.93
2023-05-05T10:47:20.267Z,69.99
2023-05-05T10:48:20.294Z,66.70
2023-05-05T10:49:20.262Z,63.87
2023-05-05T10:50:20.325Z,59.59
2023-05-05T10:51:31.066Z,56.83
2023-05-05T10:52:21.219Z,55.13
2023-05-05T10:53:20.202Z,57.54
2023-05-05T10:54:20.492Z,60.25
2023-05-05T10:55:20.318Z,61.44
2023-05-05T10:56:20.169Z,64.02
2023-05-05T10:57:20.214Z,69.03
2023-05-05T10:58:20.166Z,63.82
2023-05-05T10:59:20.171Z,67.34
2023-05-05T11:00:20.295Z,66.11
2023-05-05T11:01:20.183Z,67.05
2023-05-05T11:02:20.147Z,64.04
2023-05-05T11:03:20.250Z,68.42
2023-05-05T11:04:20.217Z,66.77
2023-05-05T11:05:20.462Z,65.71
2023-05-05T11:06:20.141Z,62.40
2023-05-05T11:07:20.149Z,64.24
2023-05-05T11:08:20.140Z,64.19
2023-05-05T11:09:20.143Z,61.93
2023-05-05T11:10:20.525Z,61.71
2023-05-05T11:11:20.124Z,62.56
2023-05-05T11:12:20.093Z,62.58
2023-05-05T11:13:20.148Z,61.97
2023-05-05T11:14:20.143Z,59.28
2023-05-05T11:15:20.329Z,57.04
2023-05-05T11:16:20.206Z,58.18
2023-05-05T11:17:20.207Z,57.76
2023-05-05T11:18:20.257Z,55.84
2023-05-05T11:19:20.303Z,54.88
2023-05-05T11:20:20.806Z,53.15
2023-05-05T11:21:20.480Z,55.92
2023-05-05T11:22:20.514Z,54.84
2023-05-05T11:23:20.549Z,53.54
2023-05-05T11:24:20.580Z,53.08
2023-05-05T11:25:20.860Z,53.71
2023-05-05T11:26:20.708Z,53.22
2023-05-05T11:27:20.750Z,49.64
2023-05-05T11:28:20.812Z,51.41
2023-05-05T11:29:20.887Z,50.26
2023-05-05T11:30:20.906Z,51.44
2023-05-05T11:31:21.046Z,49.50
2023-05-05T11:32:21.057Z,46.59
2023-05-05T11:33:21.090Z,48.83
2023-05-05T11:34:21.172Z,47.88
2023-05-05T11:35:21.333Z,46.03
2023-05-05T11:36:21.328Z,47.04
2023-05-05T11:37:21.486Z,44.66
2023-05-05T11:38:21.453Z,46.51
2023-05-05T11:39:21.469Z,45.28
2023-05-05T11:40:21.554Z,45.99
2023-05-05T11:41:21.631Z,44.63
2023-05-05T11:42:21.656Z,44.87
2023-05-05T11:43:21.727Z,46.02
2023-05-05T11:44:21.804Z,44.58
2023-05-05T11:45:22.340Z,44.89
2023-05-05T11:46:21.951Z,43.51
2023-05-05T11:47:22.005Z,44.03
2023-05-05T11:48:22.038Z,45.96
2023-05-05T11:49:22.085Z,42.95
2023-05-05T11:50:22.181Z,42.03
2023-05-05T11:51:22.218Z,43.14
2023-05-05T11:52:22.254Z,42.14
2023-05-05T11:53:22.352Z,42.90
2023-05-05T11:54:22.294Z,42.31
2023-05-05T11:55:22.287Z,41.23
2023-05-05T11:56:22.371Z,42.39
2023-05-05T11:57:22.342Z,42.16
2023-05-05T11:58:22.390Z,40.48
2023-05-05T11:59:22.386Z,41.07
2023-05-05T12:00:22.405Z,37.09
2023-05-05T12:01:22.364Z,39.96
2023-05-05T12:02:22.423Z,40.46
2023-05-05T12:03:22.500Z,38.27
2023-05-05T12:04:22.474Z,36.98
2023-05-05T12:05:22.862Z,38.00
2023-05-05T12:06:22.445Z,40.18
2023-05-05T12:07:22.479Z,35.99
2023-05-05T12:08:22.425Z,38.93
2023-05-05T12:09:22.494Z,38.34
2023-05-05T12:10:22.868Z,36.31
2023-05-05T12:11:22.431Z,35.30
2023-05-05T12:12:22.441Z,34.90
2023-05-05T12:13:22.481Z,34.54
2023-05-05T12:14:22.423Z,34.93
2023-05-05T12:15:22.847Z,36.92
2023-05-05T12:16:22.505Z,36.28
2023-05-05T12:17:22.400Z,36.10
2023-05-05T12:18:22.405Z,34.62
2023-05-05T12:19:22.405Z,35.14
2023-05-05T12:20:22.863Z,34.49
2023-05-05T12:21:22.382Z,32.94
2023-05-05T12:22:22.367Z,32.76
2023-05-05T12:23:22.386Z,32.56
2023-05-05T12:24:22.364Z,34.01
2023-05-05T12:25:22.452Z,32.54
2023-05-05T12:26:22.375Z,34.71
2023-05-05T12:27:22.393Z,32.48
2023-05-05T12:28:22.390Z,33.68
2023-05-05T12:29:22.406Z,31.39
2023-05-05T12:30:22.875Z,31.93
2023-05-05T12:31:22.445Z,32.23
2023-05-05T12:32:22.430Z,32.14
2023-05-05T12:33:22.405Z,30.86
2023-05-05T12:34:22.437Z,32.78
2023-05-05T12:35:22.853Z,30.90
2023-05-05T12:36:22.441Z,30.14
2023-05-05T12:37:22.439Z,28.66
2023-05-05T12:38:22.431Z,28.87
2023-05-05T12:39:22.470Z,30.98
2023-05-05T12:40:22.893Z,29.10
2023-05-05T12:41:22.637Z,28.64
2023-05-05T12:42:22.491Z,29.34
2023-05-05T12:43:22.482Z,30.08
2023-05-05T12:44:22.488Z,28.89
2023-05-05T12:45:22.491Z,28.66
2023-05-05T12:46:22.630Z,26.05
2023-05-05T12:47:22.509Z,28.09
2023-05-05T12:48:22.545Z,25.00
2023-05-05T12:49:22.514Z,30.12
2023-05-05T12:50:22.551Z,28.71
2023-05-05T12:51:22.632Z,25.52
2023-05-05T12:52:22.553Z,29.29
2023-05-05T12:53:22.564Z,26.48